sensor_id;sensor_type;location;lat;lon;timestamp;temperature;humidity
8340;DHT22;4207;49.314;7.162;2023-04-24T00:00:28;10.40;99.90
8340;DHT22;4207;49.314;7.162;2023-04-24T00:02:57;10.40;99.90
8340;DHT22;4207;49.314;7.162;2023-04-24T00:05:26;10.80;99.90
8340;DHT22;4207;49.314;7.162;2023-04-24T00:07:54;10.40;99.90
8340;DHT22;4207;49.314;7.162;2023-04-24T00:10:24;10.30;99.90
8340;DHT22;4207;49.314;7.162;2023-04-24T00:12:52;10.30;99.90
8340;DHT22;4207;49.314;7.162;2023-04-24T00:15:20;10.30;99.90
8340;DHT22;4207;49.314;7.162;2023-04-24T00:17:49;10.40;99.90
8340;DHT22;4207;49.314;7.162;2023-04-24T00:20:17;10.40;99.90
8340;DHT22;4207;49.314;7.162;2023-04-24T00:22:45;10.40;99.90
8340;DHT22;4207;49.314;7.162;2023-04-24T00:25:14;10.40;99.90
8340;DHT22;4207;49.314;7.162;2023-04-24T00:27:43;10.50;99.90
8340;DHT22;4207;49.314;7.162;2023-04-24T00:30:11;10.50;99.90
8340;DHT22;4207;49.314;7.162;2023-04-24T00:32:40;10.50;99.90
8340;DHT22;4207;49.314;7.162;2023-04-24T00:35:08;10.50;99.90
8340;DHT22;4207;49.314;7.162;2023-04-24T00:37:37;10.40;99.90
8340;DHT22;4207;49.314;7.162;2023-04-24T00:40:06;10.40;99.90
8340;DHT22;4207;49.314;7.162;2023-04-24T00:42:34;10.30;99.90
8340;DHT22;4207;49.314;7.162;2023-04-24T00:45:06;10.10;99.90
8340;DHT22;4207;49.314;7.162;2023-04-24T00:47:35;10.10;99.90
8340;DHT22;4207;49.314;7.162;2023-04-24T00:50:04;10.00;99.90
8340;DHT22;4207;49.314;7.162;2023-04-24T00:52:34;9.90;99.90
8340;DHT22;4207;49.314;7.162;2023-04-24T00:55:03;9.90;99.90
8340;DHT22;4207;49.314;7.162;2023-04-24T00:57:32;9.80;99.90
8340;DHT22;4207;49.314;7.162;2023-04-24T01:00:00;9.70;99.90
8340;DHT22;4207;49.314;7.162;2023-04-24T01:02:32;9.70;99.90
8340;DHT22;4207;49.314;7.162;2023-04-24T01:05:01;9.60;99.90
8340;DHT22;4207;49.314;7.162;2023-04-24T01:07:30;9.50;99.90
8340;DHT22;4207;49.314;7.162;2023-04-24T01:10:00;9.50;99.90
8340;DHT22;4207;49.314;7.162;2023-04-24T01:12:30;9.40;99.90
8340;DHT22;4207;49.314;7.162;2023-04-24T01:14:59;9.30;99.90
8340;DHT22;4207;49.314;7.162;2023-04-24T01:17:27;9.30;99.90
8340;DHT22;4207;49.314;7.162;2023-04-24T01:19:57;9.30;99.90
8340;DHT22;4207;49.314;7.162;2023-04-24T01:22:27;9.20;99.90
8340;DHT22;4207;49.314;7.162;2023-04-24T01:24:57;9.20;99.90
8340;DHT22;4207;49.314;7.162;2023-04-24T01:27:25;9.20;99.90
8340;DHT22;4207;49.314;7.162;2023-04-24T01:29:53;9.10;99.90
8340;DHT22;4207;49.314;7.162;2023-04-24T01:32:21;9.10;99.90
8340;DHT22;4207;49.314;7.162;2023-04-24T01:34:50;9.10;99.90
8340;DHT22;4207;49.314;7.162;2023-04-24T01:37:18;9.10;99.90
8340;DHT22;4207;49.314;7.162;2023-04-24T01:39:48;9.00;99.90
8340;DHT22;4207;49.314;7.162;2023-04-24T01:42:17;9.00;99.90
8340;DHT22;4207;49.314;7.162;2023-04-24T01:44:47;8.90;99.90
8340;DHT22;4207;49.314;7.162;2023-04-24T01:47:15;8.90;99.90
8340;DHT22;4207;49.314;7.162;2023-04-24T01:49:43;8.90;99.90
8340;DHT22;4207;49.314;7.162;2023-04-24T01:52:12;8.90;99.90
8340;DHT22;4207;49.314;7.162;2023-04-24T01:54:40;8.90;99.90
8340;DHT22;4207;49.314;7.162;2023-04-24T01:57:10;8.90;99.90
8340;DHT22;4207;49.314;7.162;2023-04-24T01:59:38;8.90;99.90
8340;DHT22;4207;49.314;7.162;2023-04-24T02:02:06;8.90;99.90
8340;DHT22;4207;49.314;7.162;2023-04-24T02:04:35;8.90;99.90
8340;DHT22;4207;49.314;7.162;2023-04-24T02:07:02;8.90;99.90
8340;DHT22;4207;49.314;7.162;2023-04-24T02:09:32;8.90;99.90
8340;DHT22;4207;49.314;7.162;2023-04-24T02:12:00;8.80;99.90
8340;DHT22;4207;49.314;7.162;2023-04-24T02:14:29;8.90;99.90
8340;DHT22;4207;49.314;7.162;2023-04-24T02:16:57;8.80;99.90
8340;DHT22;4207;49.314;7.162;2023-04-24T02:19:25;8.80;99.90
8340;DHT22;4207;49.314;7.162;2023-04-24T02:21:53;8.80;99.90
8340;DHT22;4207;49.314;7.162;2023-04-24T02:24:21;8.80;99.90
8340;DHT22;4207;49.314;7.162;2023-04-24T02:26:49;8.70;99.90
8340;DHT22;4207;49.314;7.162;2023-04-24T02:29:17;8.70;99.90
8340;DHT22;4207;49.314;7.162;2023-04-24T02:31:47;8.70;99.90
8340;DHT22;4207;49.314;7.162;2023-04-24T02:34:15;8.60;99.90
8340;DHT22;4207;49.314;7.162;2023-04-24T02:36:43;8.50;99.90
8340;DHT22;4207;49.314;7.162;2023-04-24T02:39:11;8.50;99.90
8340;DHT22;4207;49.314;7.162;2023-04-24T02:41:40;8.40;99.90
8340;DHT22;4207;49.314;7.162;2023-04-24T02:44:08;8.30;99.90
8340;DHT22;4207;49.314;7.162;2023-04-24T02:46:36;8.20;99.90
8340;DHT22;4207;49.314;7.162;2023-04-24T02:49:06;8.00;99.90
8340;DHT22;4207;49.314;7.162;2023-04-24T02:51:34;8.00;99.90
8340;DHT22;4207;49.314;7.162;2023-04-24T02:54:04;7.90;99.90
8340;DHT22;4207;49.314;7.162;2023-04-24T02:56:32;7.80;99.90
8340;DHT22;4207;49.314;7.162;2023-04-24T02:59:01;7.80;99.90
8340;DHT22;4207;49.314;7.162;2023-04-24T03:01:30;7.70;99.90
8340;DHT22;4207;49.314;7.162;2023-04-24T03:03:58;7.60;99.90
8340;DHT22;4207;49.314;7.162;2023-04-24T03:06:28;7.60;99.90
8340;DHT22;4207;49.314;7.162;2023-04-24T03:08:58;7.50;99.90
8340;DHT22;4207;49.314;7.162;2023-04-24T03:11:26;7.40;99.90
8340;DHT22;4207;49.314;7.162;2023-04-24T03:13:54;7.40;99.90
8340;DHT22;4207;49.314;7.162;2023-04-24T03:16:22;7.40;99.90
8340;DHT22;4207;49.314;7.162;2023-04-24T03:18:50;7.40;99.90
8340;DHT22;4207;49.314;7.162;2023-04-24T03:21:22;7.40;99.90
8340;DHT22;4207;49.314;7.162;2023-04-24T03:23:51;7.40;99.90
8340;DHT22;4207;49.314;7.162;2023-04-24T03:26:19;7.50;99.90
8340;DHT22;4207;49.314;7.162;2023-04-24T03:29:02;7.50;99.90
8340;DHT22;4207;49.314;7.162;2023-04-24T03:31:30;7.60;99.90
8340;DHT22;4207;49.314;7.162;2023-04-24T03:33:58;7.70;99.90
8340;DHT22;4207;49.314;7.162;2023-04-24T03:36:27;7.70;99.90
8340;DHT22;4207;49.314;7.162;2023-04-24T03:38:56;7.80;99.90
8340;DHT22;4207;49.314;7.162;2023-04-24T03:41:31;7.80;99.90
8340;DHT22;4207;49.314;7.162;2023-04-24T03:44:21;7.90;99.90
8340;DHT22;4207;49.314;7.162;2023-04-24T03:46:50;7.90;99.90
8340;DHT22;4207;49.314;7.162;2023-04-24T03:49:20;8.00;99.90
8340;DHT22;4207;49.314;7.162;2023-04-24T03:51:48;7.90;99.90
8340;DHT22;4207;49.314;7.162;2023-04-24T03:54:22;8.00;99.90
8340;DHT22;4207;49.314;7.162;2023-04-24T03:56:51;8.00;99.90
8340;DHT22;4207;49.314;7.162;2023-04-24T03:59:20;8.00;99.90
8340;DHT22;4207;49.314;7.162;2023-04-24T04:01:59;8.00;99.90
8340;DHT22;4207;49.314;7.162;2023-04-24T04:04:28;8.10;99.90
8340;DHT22;4207;49.314;7.162;2023-04-24T04:06:56;8.10;99.90
8340;DHT22;4207;49.314;7.162;2023-04-24T04:09:29;8.10;99.90
8340;DHT22;4207;49.314;7.162;2023-04-24T04:11:57;8.10;99.90
8340;DHT22;4207;49.314;7.162;2023-04-24T04:14:25;8.10;99.90
8340;DHT22;4207;49.314;7.162;2023-04-24T04:16:53;8.00;99.90
8340;DHT22;4207;49.314;7.162;2023-04-24T04:19:21;8.00;99.90
8340;DHT22;4207;49.314;7.162;2023-04-24T04:21:50;8.00;99.90
8340;DHT22;4207;49.314;7.162;2023-04-24T04:24:40;8.00;99.90
8340;DHT22;4207;49.314;7.162;2023-04-24T04:27:09;8.20;99.90
8340;DHT22;4207;49.314;7.162;2023-04-24T04:29:45;8.20;99.90
8340;DHT22;4207;49.314;7.162;2023-04-24T04:32:15;8.30;99.90
8340;DHT22;4207;49.314;7.162;2023-04-24T04:34:43;8.40;99.90
8340;DHT22;4207;49.314;7.162;2023-04-24T04:37:12;8.40;99.90
8340;DHT22;4207;49.314;7.162;2023-04-24T04:39:51;8.50;99.90
8340;DHT22;4207;49.314;7.162;2023-04-24T04:42:23;8.50;99.90
8340;DHT22;4207;49.314;7.162;2023-04-24T04:44:51;8.60;99.90
8340;DHT22;4207;49.314;7.162;2023-04-24T04:47:25;8.60;99.90
8340;DHT22;4207;49.314;7.162;2023-04-24T04:49:56;8.60;99.90
8340;DHT22;4207;49.314;7.162;2023-04-24T04:52:26;8.60;99.90
8340;DHT22;4207;49.314;7.162;2023-04-24T04:55:06;8.60;99.90
8340;DHT22;4207;49.314;7.162;2023-04-24T04:58:04;8.60;99.90
8340;DHT22;4207;49.314;7.162;2023-04-24T05:00:32;8.70;99.90
8340;DHT22;4207;49.314;7.162;2023-04-24T05:03:10;8.70;99.90
8340;DHT22;4207;49.314;7.162;2023-04-24T05:05:53;8.70;99.90
8340;DHT22;4207;49.314;7.162;2023-04-24T05:08:23;8.70;99.90
8340;DHT22;4207;49.314;7.162;2023-04-24T05:10:55;8.70;99.90
8340;DHT22;4207;49.314;7.162;2023-04-24T05:13:29;8.70;99.90
8340;DHT22;4207;49.314;7.162;2023-04-24T05:16:12;8.70;99.90
8340;DHT22;4207;49.314;7.162;2023-04-24T05:18:41;8.70;99.90
8340;DHT22;4207;49.314;7.162;2023-04-24T05:21:12;8.70;99.90
8340;DHT22;4207;49.314;7.162;2023-04-24T05:23:43;8.70;99.90
8340;DHT22;4207;49.314;7.162;2023-04-24T05:26:16;8.70;99.90
8340;DHT22;4207;49.314;7.162;2023-04-24T05:28:45;8.70;99.90
8340;DHT22;4207;49.314;7.162;2023-04-24T05:31:13;8.70;99.90
8340;DHT22;4207;49.314;7.162;2023-04-24T05:33:42;8.80;99.90
8340;DHT22;4207;49.314;7.162;2023-04-24T05:36:10;8.90;99.90
8340;DHT22;4207;49.314;7.162;2023-04-24T05:38:38;8.90;99.90
8340;DHT22;4207;49.314;7.162;2023-04-24T05:41:06;8.90;99.90
8340;DHT22;4207;49.314;7.162;2023-04-24T05:43:36;9.00;99.90
8340;DHT22;4207;49.314;7.162;2023-04-24T05:46:04;9.00;99.90
8340;DHT22;4207;49.314;7.162;2023-04-24T05:48:32;9.00;99.90
8340;DHT22;4207;49.314;7.162;2023-04-24T05:51:03;9.00;99.90
8340;DHT22;4207;49.314;7.162;2023-04-24T05:53:31;9.10;99.90
8340;DHT22;4207;49.314;7.162;2023-04-24T05:56:01;9.10;99.90
8340;DHT22;4207;49.314;7.162;2023-04-24T05:58:29;9.10;99.90
8340;DHT22;4207;49.314;7.162;2023-04-24T06:01:00;9.10;99.90
8340;DHT22;4207;49.314;7.162;2023-04-24T06:03:29;9.10;99.90
8340;DHT22;4207;49.314;7.162;2023-04-24T06:05:57;9.20;99.90
8340;DHT22;4207;49.314;7.162;2023-04-24T06:08:27;9.20;99.90
8340;DHT22;4207;49.314;7.162;2023-04-24T06:10:56;9.20;99.90
8340;DHT22;4207;49.314;7.162;2023-04-24T06:13:24;9.20;99.90
8340;DHT22;4207;49.314;7.162;2023-04-24T06:16:12;9.30;99.90
8340;DHT22;4207;49.314;7.162;2023-04-24T06:18:45;9.40;99.90
8340;DHT22;4207;49.314;7.162;2023-04-24T06:21:16;9.40;99.90
8340;DHT22;4207;49.314;7.162;2023-04-24T06:23:44;9.40;99.90
8340;DHT22;4207;49.314;7.162;2023-04-24T06:26:14;9.40;99.90
8340;DHT22;4207;49.314;7.162;2023-04-24T06:28:42;9.30;99.90
8340;DHT22;4207;49.314;7.162;2023-04-24T06:31:11;9.30;99.90
8340;DHT22;4207;49.314;7.162;2023-04-24T06:33:40;9.40;99.90
8340;DHT22;4207;49.314;7.162;2023-04-24T06:36:09;9.50;99.90
8340;DHT22;4207;49.314;7.162;2023-04-24T06:38:38;9.60;99.90
8340;DHT22;4207;49.314;7.162;2023-04-24T06:41:06;9.70;99.90
8340;DHT22;4207;49.314;7.162;2023-04-24T06:43:34;9.90;99.90
8340;DHT22;4207;49.314;7.162;2023-04-24T06:46:02;10.00;99.90
8340;DHT22;4207;49.314;7.162;2023-04-24T06:48:31;9.90;99.90
8340;DHT22;4207;49.314;7.162;2023-04-24T06:50:59;9.80;99.90
8340;DHT22;4207;49.314;7.162;2023-04-24T06:53:27;9.80;99.90
8340;DHT22;4207;49.314;7.162;2023-04-24T06:55:55;9.80;99.90
8340;DHT22;4207;49.314;7.162;2023-04-24T06:58:24;9.90;99.90
8340;DHT22;4207;49.314;7.162;2023-04-24T07:00:52;10.00;99.90
8340;DHT22;4207;49.314;7.162;2023-04-24T07:03:20;10.10;99.90
8340;DHT22;4207;49.314;7.162;2023-04-24T07:05:50;10.20;99.90
8340;DHT22;4207;49.314;7.162;2023-04-24T07:08:18;10.20;99.90
8340;DHT22;4207;49.314;7.162;2023-04-24T07:10:48;10.30;99.90
8340;DHT22;4207;49.314;7.162;2023-04-24T07:13:17;10.30;99.90
8340;DHT22;4207;49.314;7.162;2023-04-24T07:15:45;10.30;99.90
8340;DHT22;4207;49.314;7.162;2023-04-24T07:18:13;10.20;99.90
8340;DHT22;4207;49.314;7.162;2023-04-24T07:20:41;10.00;99.90
8340;DHT22;4207;49.314;7.162;2023-04-24T07:23:10;9.80;99.90
8340;DHT22;4207;49.314;7.162;2023-04-24T07:25:39;9.80;99.90
8340;DHT22;4207;49.314;7.162;2023-04-24T07:28:07;9.70;99.90
8340;DHT22;4207;49.314;7.162;2023-04-24T07:30:35;9.70;99.90
8340;DHT22;4207;49.314;7.162;2023-04-24T07:33:03;9.70;99.90
8340;DHT22;4207;49.314;7.162;2023-04-24T07:35:33;9.70;99.90
8340;DHT22;4207;49.314;7.162;2023-04-24T07:38:02;9.60;99.90
8340;DHT22;4207;49.314;7.162;2023-04-24T07:40:31;9.60;99.90
8340;DHT22;4207;49.314;7.162;2023-04-24T07:42:59;9.50;99.90
8340;DHT22;4207;49.314;7.162;2023-04-24T07:45:27;9.40;99.90
8340;DHT22;4207;49.314;7.162;2023-04-24T07:47:55;9.40;99.90
8340;DHT22;4207;49.314;7.162;2023-04-24T07:50:23;9.40;99.90
8340;DHT22;4207;49.314;7.162;2023-04-24T07:52:51;9.40;99.90
8340;DHT22;4207;49.314;7.162;2023-04-24T07:55:19;9.50;99.90
8340;DHT22;4207;49.314;7.162;2023-04-24T07:57:54;9.50;99.90
8340;DHT22;4207;49.314;7.162;2023-04-24T08:00:22;9.50;99.90
8340;DHT22;4207;49.314;7.162;2023-04-24T08:02:50;9.60;99.90
8340;DHT22;4207;49.314;7.162;2023-04-24T08:05:18;9.60;99.90
8340;DHT22;4207;49.314;7.162;2023-04-24T08:07:47;9.70;99.90
8340;DHT22;4207;49.314;7.162;2023-04-24T08:10:17;9.80;99.90
8340;DHT22;4207;49.314;7.162;2023-04-24T08:12:45;9.80;99.90
8340;DHT22;4207;49.314;7.162;2023-04-24T08:15:14;9.90;99.90
8340;DHT22;4207;49.314;7.162;2023-04-24T08:17:42;9.90;99.90
8340;DHT22;4207;49.314;7.162;2023-04-24T08:20:11;9.80;99.90
8340;DHT22;4207;49.314;7.162;2023-04-24T08:22:40;9.90;99.90
8340;DHT22;4207;49.314;7.162;2023-04-24T08:25:10;9.90;99.90
8340;DHT22;4207;49.314;7.162;2023-04-24T08:27:38;9.80;99.90
8340;DHT22;4207;49.314;7.162;2023-04-24T08:30:07;9.70;99.90
8340;DHT22;4207;49.314;7.162;2023-04-24T08:32:37;9.50;99.90
8340;DHT22;4207;49.314;7.162;2023-04-24T08:35:06;9.40;99.90
8340;DHT22;4207;49.314;7.162;2023-04-24T08:37:36;9.40;99.90
8340;DHT22;4207;49.314;7.162;2023-04-24T08:40:11;9.30;99.90
8340;DHT22;4207;49.314;7.162;2023-04-24T08:43:27;9.30;99.90
8340;DHT22;4207;49.314;7.162;2023-04-24T08:45:56;9.20;99.90
8340;DHT22;4207;49.314;7.162;2023-04-24T08:48:27;9.20;99.90
8340;DHT22;4207;49.314;7.162;2023-04-24T08:50:58;9.20;99.90
8340;DHT22;4207;49.314;7.162;2023-04-24T08:53:28;9.20;99.90
8340;DHT22;4207;49.314;7.162;2023-04-24T08:55:59;9.20;99.90
8340;DHT22;4207;49.314;7.162;2023-04-24T08:58:29;9.40;99.90
8340;DHT22;4207;49.314;7.162;2023-04-24T09:00:57;9.40;99.90
8340;DHT22;4207;49.314;7.162;2023-04-24T09:03:28;9.50;99.90
8340;DHT22;4207;49.314;7.162;2023-04-24T09:05:57;9.60;99.90
8340;DHT22;4207;49.314;7.162;2023-04-24T09:08:28;9.70;99.90
8340;DHT22;4207;49.314;7.162;2023-04-24T09:10:59;9.80;99.90
8340;DHT22;4207;49.314;7.162;2023-04-24T09:13:30;9.90;99.90
8340;DHT22;4207;49.314;7.162;2023-04-24T09:15:58;10.00;99.90
8340;DHT22;4207;49.314;7.162;2023-04-24T09:18:28;9.90;99.90
8340;DHT22;4207;49.314;7.162;2023-04-24T09:20:57;9.80;99.90
8340;DHT22;4207;49.314;7.162;2023-04-24T09:23:26;9.70;99.90
8340;DHT22;4207;49.314;7.162;2023-04-24T09:25:55;9.50;99.90
8340;DHT22;4207;49.314;7.162;2023-04-24T09:28:30;9.40;99.90
8340;DHT22;4207;49.314;7.162;2023-04-24T09:31:04;9.40;99.90
8340;DHT22;4207;49.314;7.162;2023-04-24T09:33:34;9.40;99.90
8340;DHT22;4207;49.314;7.162;2023-04-24T09:36:03;9.40;99.90
8340;DHT22;4207;49.314;7.162;2023-04-24T09:38:32;9.40;99.90
8340;DHT22;4207;49.314;7.162;2023-04-24T09:41:01;9.40;99.90
8340;DHT22;4207;49.314;7.162;2023-04-24T09:43:30;9.40;99.90
8340;DHT22;4207;49.314;7.162;2023-04-24T09:46:00;9.20;99.90
8340;DHT22;4207;49.314;7.162;2023-04-24T09:48:35;9.20;99.90
8340;DHT22;4207;49.314;7.162;2023-04-24T09:51:04;9.40;99.90
8340;DHT22;4207;49.314;7.162;2023-04-24T09:53:33;9.60;99.90
8340;DHT22;4207;49.314;7.162;2023-04-24T09:56:08;9.70;99.90
8340;DHT22;4207;49.314;7.162;2023-04-24T09:58:36;10.00;99.90
8340;DHT22;4207;49.314;7.162;2023-04-24T10:01:05;10.30;99.90
8340;DHT22;4207;49.314;7.162;2023-04-24T10:03:35;10.50;99.90
8340;DHT22;4207;49.314;7.162;2023-04-24T10:06:03;10.60;99.90
8340;DHT22;4207;49.314;7.162;2023-04-24T10:08:36;10.80;99.90
8340;DHT22;4207;49.314;7.162;2023-04-24T10:11:05;11.10;99.90
8340;DHT22;4207;49.314;7.162;2023-04-24T10:13:34;11.30;99.90
8340;DHT22;4207;49.314;7.162;2023-04-24T10:16:03;11.60;99.90
8340;DHT22;4207;49.314;7.162;2023-04-24T10:18:32;11.60;99.90
8340;DHT22;4207;49.314;7.162;2023-04-24T10:21:04;11.60;99.90
8340;DHT22;4207;49.314;7.162;2023-04-24T10:23:33;11.60;99.90
8340;DHT22;4207;49.314;7.162;2023-04-24T10:26:04;11.80;99.90
8340;DHT22;4207;49.314;7.162;2023-04-24T10:28:34;12.00;99.90
8340;DHT22;4207;49.314;7.162;2023-04-24T10:31:03;12.10;99.90
8340;DHT22;4207;49.314;7.162;2023-04-24T10:33:31;12.40;99.90
8340;DHT22;4207;49.314;7.162;2023-04-24T10:35:59;12.40;99.90
8340;DHT22;4207;49.314;7.162;2023-04-24T10:38:29;12.60;99.90
8340;DHT22;4207;49.314;7.162;2023-04-24T10:41:07;12.60;99.90
8340;DHT22;4207;49.314;7.162;2023-04-24T10:43:36;12.60;99.90
8340;DHT22;4207;49.314;7.162;2023-04-24T10:46:05;12.80;99.90
8340;DHT22;4207;49.314;7.162;2023-04-24T10:48:34;12.90;99.90
8340;DHT22;4207;49.314;7.162;2023-04-24T10:51:02;13.00;99.90
8340;DHT22;4207;49.314;7.162;2023-04-24T10:53:34;13.00;99.90
8340;DHT22;4207;49.314;7.162;2023-04-24T10:56:04;12.80;99.90
8340;DHT22;4207;49.314;7.162;2023-04-24T10:58:37;12.80;99.90
8340;DHT22;4207;49.314;7.162;2023-04-24T11:01:07;12.60;99.90
8340;DHT22;4207;49.314;7.162;2023-04-24T11:03:35;12.30;99.90
8340;DHT22;4207;49.314;7.162;2023-04-24T11:06:06;11.90;99.90
8340;DHT22;4207;49.314;7.162;2023-04-24T11:08:39;11.70;99.90
8340;DHT22;4207;49.314;7.162;2023-04-24T11:11:11;11.60;99.90
8340;DHT22;4207;49.314;7.162;2023-04-24T11:14:07;11.60;99.90
8340;DHT22;4207;49.314;7.162;2023-04-24T11:16:42;11.60;99.90
8340;DHT22;4207;49.314;7.162;2023-04-24T11:19:20;11.70;99.90
8340;DHT22;4207;49.314;7.162;2023-04-24T11:21:54;11.70;99.90
8340;DHT22;4207;49.314;7.162;2023-04-24T11:24:31;12.00;99.90
8340;DHT22;4207;49.314;7.162;2023-04-24T11:27:06;12.20;99.90
8340;DHT22;4207;49.314;7.162;2023-04-24T11:29:40;12.40;99.90
8340;DHT22;4207;49.314;7.162;2023-04-24T11:32:19;12.50;99.90
8340;DHT22;4207;49.314;7.162;2023-04-24T11:34:52;12.50;99.90
8340;DHT22;4207;49.314;7.162;2023-04-24T11:37:22;12.60;99.90
8340;DHT22;4207;49.314;7.162;2023-04-24T11:39:53;12.60;99.90
8340;DHT22;4207;49.314;7.162;2023-04-24T11:42:22;12.60;99.90
8340;DHT22;4207;49.314;7.162;2023-04-24T11:44:52;12.50;99.90
8340;DHT22;4207;49.314;7.162;2023-04-24T11:47:28;12.20;99.90
8340;DHT22;4207;49.314;7.162;2023-04-24T11:49:57;12.00;99.90
8340;DHT22;4207;49.314;7.162;2023-04-24T11:52:26;12.00;99.90
8340;DHT22;4207;49.314;7.162;2023-04-24T11:54:56;12.00;99.90
8340;DHT22;4207;49.314;7.162;2023-04-24T11:57:25;12.40;99.90
8340;DHT22;4207;49.314;7.162;2023-04-24T11:59:58;12.50;99.90
8340;DHT22;4207;49.314;7.162;2023-04-24T12:02:27;12.60;99.90
8340;DHT22;4207;49.314;7.162;2023-04-24T12:04:55;12.70;99.90
8340;DHT22;4207;49.314;7.162;2023-04-24T12:07:24;12.80;99.90
8340;DHT22;4207;49.314;7.162;2023-04-24T12:09:57;13.00;99.90
8340;DHT22;4207;49.314;7.162;2023-04-24T12:12:27;13.10;99.90
8340;DHT22;4207;49.314;7.162;2023-04-24T12:14:57;13.40;99.90
8340;DHT22;4207;49.314;7.162;2023-04-24T12:17:29;13.60;99.90
8340;DHT22;4207;49.314;7.162;2023-04-24T12:19:59;14.00;99.90
8340;DHT22;4207;49.314;7.162;2023-04-24T12:22:28;14.40;99.90
8340;DHT22;4207;49.314;7.162;2023-04-24T12:25:02;14.50;99.90
8340;DHT22;4207;49.314;7.162;2023-04-24T12:27:35;14.70;99.90
8340;DHT22;4207;49.314;7.162;2023-04-24T12:30:04;14.50;99.90
8340;DHT22;4207;49.314;7.162;2023-04-24T12:32:33;14.20;99.90
8340;DHT22;4207;49.314;7.162;2023-04-24T12:35:04;13.70;99.90
8340;DHT22;4207;49.314;7.162;2023-04-24T12:37:33;13.30;99.90
8340;DHT22;4207;49.314;7.162;2023-04-24T12:40:07;12.90;99.90
8340;DHT22;4207;49.314;7.162;2023-04-24T12:42:41;12.70;99.90
8340;DHT22;4207;49.314;7.162;2023-04-24T12:45:09;12.50;99.90
8340;DHT22;4207;49.314;7.162;2023-04-24T12:47:39;12.20;99.90
8340;DHT22;4207;49.314;7.162;2023-04-24T12:50:08;12.10;99.90
8340;DHT22;4207;49.314;7.162;2023-04-24T12:52:37;11.80;99.90
8340;DHT22;4207;49.314;7.162;2023-04-24T12:55:08;11.50;99.90
8340;DHT22;4207;49.314;7.162;2023-04-24T12:57:38;11.40;99.90
8340;DHT22;4207;49.314;7.162;2023-04-24T13:00:07;11.30;99.90
8340;DHT22;4207;49.314;7.162;2023-04-24T13:02:36;11.40;99.90
8340;DHT22;4207;49.314;7.162;2023-04-24T13:05:05;11.50;99.90
8340;DHT22;4207;49.314;7.162;2023-04-24T13:07:38;11.50;99.90
8340;DHT22;4207;49.314;7.162;2023-04-24T13:10:08;11.40;99.90
8340;DHT22;4207;49.314;7.162;2023-04-24T13:12:37;11.30;99.90
8340;DHT22;4207;49.314;7.162;2023-04-24T13:15:06;11.30;99.90
8340;DHT22;4207;49.314;7.162;2023-04-24T13:17:34;11.50;99.90
8340;DHT22;4207;49.314;7.162;2023-04-24T13:20:03;11.70;99.90
8340;DHT22;4207;49.314;7.162;2023-04-24T13:22:31;12.00;99.90
8340;DHT22;4207;49.314;7.162;2023-04-24T13:24:59;12.40;99.90
8340;DHT22;4207;49.314;7.162;2023-04-24T13:27:29;12.70;99.90
8340;DHT22;4207;49.314;7.162;2023-04-24T13:29:58;12.80;99.90
8340;DHT22;4207;49.314;7.162;2023-04-24T13:32:26;12.90;99.90
8340;DHT22;4207;49.314;7.162;2023-04-24T13:34:56;12.90;99.90
8340;DHT22;4207;49.314;7.162;2023-04-24T13:37:24;12.70;99.90
8340;DHT22;4207;49.314;7.162;2023-04-24T13:39:52;12.40;99.90
8340;DHT22;4207;49.314;7.162;2023-04-24T13:42:20;12.00;99.90
8340;DHT22;4207;49.314;7.162;2023-04-24T13:44:50;11.50;99.90
8340;DHT22;4207;49.314;7.162;2023-04-24T13:47:18;11.10;99.90
8340;DHT22;4207;49.314;7.162;2023-04-24T13:49:46;11.00;99.90
8340;DHT22;4207;49.314;7.162;2023-04-24T13:52:14;11.10;99.90
8340;DHT22;4207;49.314;7.162;2023-04-24T13:54:42;11.20;99.90
8340;DHT22;4207;49.314;7.162;2023-04-24T13:57:13;11.30;99.90
8340;DHT22;4207;49.314;7.162;2023-04-24T13:59:41;11.30;99.90
8340;DHT22;4207;49.314;7.162;2023-04-24T14:02:10;11.40;99.90
8340;DHT22;4207;49.314;7.162;2023-04-24T14:04:38;11.40;99.90
8340;DHT22;4207;49.314;7.162;2023-04-24T14:07:07;11.40;99.90
8340;DHT22;4207;49.314;7.162;2023-04-24T14:09:35;11.40;99.90
8340;DHT22;4207;49.314;7.162;2023-04-24T14:12:04;11.40;99.90
8340;DHT22;4207;49.314;7.162;2023-04-24T14:14:32;11.30;99.90
8340;DHT22;4207;49.314;7.162;2023-04-24T14:17:02;11.30;99.90
8340;DHT22;4207;49.314;7.162;2023-04-24T14:19:31;11.40;99.90
8340;DHT22;4207;49.314;7.162;2023-04-24T14:22:00;11.40;99.90
8340;DHT22;4207;49.314;7.162;2023-04-24T14:24:28;11.50;99.90
8340;DHT22;4207;49.314;7.162;2023-04-24T14:26:56;11.50;99.90
8340;DHT22;4207;49.314;7.162;2023-04-24T14:29:25;11.40;99.90
8340;DHT22;4207;49.314;7.162;2023-04-24T14:31:53;11.50;99.90
8340;DHT22;4207;49.314;7.162;2023-04-24T14:34:24;11.50;99.90
8340;DHT22;4207;49.314;7.162;2023-04-24T14:36:53;11.50;99.90
8340;DHT22;4207;49.314;7.162;2023-04-24T14:39:22;11.50;99.90
8340;DHT22;4207;49.314;7.162;2023-04-24T14:41:49;11.50;99.90
8340;DHT22;4207;49.314;7.162;2023-04-24T14:44:20;11.50;99.90
8340;DHT22;4207;49.314;7.162;2023-04-24T14:46:48;11.50;99.90
8340;DHT22;4207;49.314;7.162;2023-04-24T14:49:16;11.50;99.90
8340;DHT22;4207;49.314;7.162;2023-04-24T14:51:44;11.40;99.90
8340;DHT22;4207;49.314;7.162;2023-04-24T14:54:14;11.50;99.90
8340;DHT22;4207;49.314;7.162;2023-04-24T14:56:43;11.50;99.90
8340;DHT22;4207;49.314;7.162;2023-04-24T14:59:11;11.60;99.90
8340;DHT22;4207;49.314;7.162;2023-04-24T15:01:39;11.70;99.90
8340;DHT22;4207;49.314;7.162;2023-04-24T15:04:07;11.90;99.90
8340;DHT22;4207;49.314;7.162;2023-04-24T15:06:36;12.00;99.90
8340;DHT22;4207;49.314;7.162;2023-04-24T15:09:09;12.10;99.90
8340;DHT22;4207;49.314;7.162;2023-04-24T15:11:38;12.20;99.90
8340;DHT22;4207;49.314;7.162;2023-04-24T15:14:06;12.20;99.90
8340;DHT22;4207;49.314;7.162;2023-04-24T15:16:38;12.20;99.90
8340;DHT22;4207;49.314;7.162;2023-04-24T15:19:06;12.20;99.90
8340;DHT22;4207;49.314;7.162;2023-04-24T15:21:35;12.30;99.90
8340;DHT22;4207;49.314;7.162;2023-04-24T15:24:04;12.40;99.90
8340;DHT22;4207;49.314;7.162;2023-04-24T15:26:32;12.50;99.90
8340;DHT22;4207;49.314;7.162;2023-04-24T15:29:02;12.60;99.90
8340;DHT22;4207;49.314;7.162;2023-04-24T15:31:30;12.50;99.90
8340;DHT22;4207;49.314;7.162;2023-04-24T15:33:58;12.40;99.90
8340;DHT22;4207;49.314;7.162;2023-04-24T15:36:26;12.40;99.90
8340;DHT22;4207;49.314;7.162;2023-04-24T15:38:54;12.40;99.90
8340;DHT22;4207;49.314;7.162;2023-04-24T15:41:22;12.40;99.90
8340;DHT22;4207;49.314;7.162;2023-04-24T15:43:50;12.40;99.90
8340;DHT22;4207;49.314;7.162;2023-04-24T15:46:19;12.50;99.90
8340;DHT22;4207;49.314;7.162;2023-04-24T15:48:47;12.60;99.90
8340;DHT22;4207;49.314;7.162;2023-04-24T15:51:15;12.60;99.90
8340;DHT22;4207;49.314;7.162;2023-04-24T15:53:44;12.60;99.90
8340;DHT22;4207;49.314;7.162;2023-04-24T15:56:12;12.60;99.90
8340;DHT22;4207;49.314;7.162;2023-04-24T15:58:41;12.70;99.90
8340;DHT22;4207;49.314;7.162;2023-04-24T16:01:09;12.70;99.90
8340;DHT22;4207;49.314;7.162;2023-04-24T16:03:38;12.70;99.90
8340;DHT22;4207;49.314;7.162;2023-04-24T16:06:07;12.60;99.90
8340;DHT22;4207;49.314;7.162;2023-04-24T16:08:35;12.50;99.90
8340;DHT22;4207;49.314;7.162;2023-04-24T16:11:03;12.50;99.90
8340;DHT22;4207;49.314;7.162;2023-04-24T16:13:31;12.40;99.90
8340;DHT22;4207;49.314;7.162;2023-04-24T16:16:00;12.50;99.90
8340;DHT22;4207;49.314;7.162;2023-04-24T16:18:28;12.50;99.90
8340;DHT22;4207;49.314;7.162;2023-04-24T16:20:57;12.50;99.90
8340;DHT22;4207;49.314;7.162;2023-04-24T16:23:25;12.50;99.90
8340;DHT22;4207;49.314;7.162;2023-04-24T16:25:53;12.50;99.90